Time;durP1;ratioP1;P1;durP2;ratioP2;P2;SDS_P1;SDS_P2;PMS_P1;PMS_P2;Temp;Humidity;BMP_temperature;BMP_pressure;BME280_temperature;BME280_humidity;BME280_pressure;Samples;Min_cycle;Max_cycle;Signal;HPM_P1;HPM_P2
2022/11/03 00:00:10;;;;;;;14.48;7.88;;;5.90;99.90;;;;;;7585882;19;20022;-72
2022/11/03 00:02:43;;;;;;;13.95;8.38;;;5.90;99.90;;;;;;7592657;19;20048;-72
2022/11/03 00:08:07;;;;;;;20.17;9.77;;;5.70;99.90;;;;;;7608754;19;20031;-72
2022/11/03 00:10:39;;;;;;;20.83;12.32;;;5.70;99.90;;;;;;7604031;19;20835;-72
2022/11/03 00:13:11;;;;;;;22.88;11.85;;;5.70;99.90;;;;;;7606868;19;20544;-72
2022/11/03 00:15:49;;;;;;;18.33;10.27;;;5.70;99.90;;;;;;7596734;19;20482;-72
2022/11/03 00:18:21;;;;;;;18.52;10.43;;;5.70;99.90;;;;;;7612095;19;20018;-72
2022/11/03 00:21:05;;;;;;;21.67;11.05;;;5.70;99.90;;;;;;7603493;19;20054;-72
2022/11/03 00:23:43;;;;;;;21.80;12.00;;;5.70;99.90;;;;;;7602885;19;20654;-72
2022/11/03 00:26:22;;;;;;;21.45;11.93;;;5.60;99.90;;;;;;7612341;19;20015;-73
2022/11/03 00:28:55;;;;;;;19.20;12.05;;;5.70;99.90;;;;;;7612313;19;20007;-73
2022/11/03 00:31:30;;;;;;;20.05;12.65;;;5.70;99.90;;;;;;7614871;19;20144;-73
2022/11/03 00:34:04;;;;;;;20.95;10.77;;;5.70;99.90;;;;;;7603939;19;20015;-73
2022/11/03 00:36:37;;;;;;;;;;;5.80;99.90;;;;;;7615093;19;20019;-73
2022/11/03 00:39:10;;;;;;;20.52;10.38;;;5.80;99.90;;;;;;7594799;19;19918;-73
2022/11/03 00:41:42;;;;;;;21.47;11.67;;;5.70;99.90;;;;;;7611507;19;20014;-73
2022/11/03 00:44:14;;;;;;;22.48;10.93;;;5.70;99.90;;;;;;7612251;19;20017;-73
2022/11/03 00:46:46;;;;;;;17.10;10.55;;;5.70;99.90;;;;;;7609442;19;20094;-74
2022/11/03 00:49:18;;;;;;;20.30;10.13;;;5.60;99.90;;;;;;7616019;19;20022;-73
2022/11/03 00:51:50;;;;;;;18.05;8.68;;;5.70;99.90;;;;;;7610725;19;20021;-74
2022/11/03 00:54:22;;;;;;;18.92;9.23;;;5.70;99.90;;;;;;7608585;19;20023;-73
2022/11/03 00:56:54;;;;;;;17.30;7.88;;;5.70;99.90;;;;;;7607754;19;22237;-73
2022/11/03 00:59:26;;;;;;;14.80;8.70;;;5.70;99.90;;;;;;7609487;19;20010;-73
2022/11/03 01:01:58;;;;;;;20.80;8.75;;;5.70;99.90;;;;;;7604810;19;20022;-73
2022/11/03 01:07:22;;;;;;;15.95;8.82;;;5.70;99.90;;;;;;7609412;19;20010;-73
2022/11/03 01:09:54;;;;;;;14.05;8.07;;;5.60;99.90;;;;;;7601265;19;20018;-73
2022/11/03 01:12:26;;;;;;;14.93;8.40;;;5.60;99.90;;;;;;7599766;19;20418;-73
2022/11/03 01:14:58;;;;;;;15.05;7.68;;;5.60;99.90;;;;;;7608005;19;20018;-73
2022/11/03 01:17:30;;;;;;;15.68;8.35;;;5.70;99.90;;;;;;7606301;19;20078;-73
2022/11/03 01:20:03;;;;;;;10.07;6.57;;;5.70;99.90;;;;;;7599111;19;20011;-73
2022/11/03 01:22:35;;;;;;;11.73;6.68;;;5.70;99.90;;;;;;7607017;19;20957;-73
2022/11/03 01:25:08;;;;;;;12.63;6.47;;;5.70;99.90;;;;;;7606162;19;20006;-73
2022/11/03 01:27:40;;;;;;;11.95;6.63;;;5.60;99.90;;;;;;7604985;19;20038;-73
2022/11/03 01:30:12;;;;;;;16.27;6.78;;;5.60;99.90;;;;;;7596449;19;20010;-73
2022/11/03 01:32:44;;;;;;;13.82;7.45;;;5.50;99.90;;;;;;7592117;19;20621;-73
2022/11/03 01:35:16;;;;;;;17.33;8.52;;;5.50;99.90;;;;;;7582924;19;20848;-73
2022/11/03 01:37:48;;;;;;;19.70;8.85;;;5.40;99.90;;;;;;7598049;19;20017;-73
2022/11/03 01:40:20;;;;;;;14.38;9.35;;;5.30;99.90;;;;;;7591882;19;20049;-73
2022/11/03 01:42:52;;;;;;;17.42;10.88;;;5.30;99.90;;;;;;7593856;19;20029;-73
2022/11/03 01:45:24;;;;;;;25.13;10.77;;;5.30;99.90;;;;;;7600424;19;20032;-73
2022/11/03 01:47:56;;;;;;;16.50;9.15;;;5.10;99.90;;;;;;7618396;19;20018;-73
2022/11/03 01:50:29;;;;;;;18.60;9.18;;;5.20;99.90;;;;;;7614555;19;20486;-73
2022/11/03 01:53:01;;;;;;;20.45;10.68;;;5.20;99.90;;;;;;7602676;19;20030;-74
2022/11/03 01:55:38;;;;;;;18.95;9.30;;;5.30;99.90;;;;;;7604592;19;20029;-73
2022/11/03 01:58:16;;;;;;;18.10;9.60;;;5.40;99.90;;;;;;7612907;19;20371;-73
2022/11/03 02:00:53;;;;;;;17.63;9.10;;;5.40;99.90;;;;;;7616364;19;20762;-73
2022/11/03 02:03:30;;;;;;;15.75;8.77;;;5.40;99.90;;;;;;7616508;19;20015;-74
2022/11/03 02:06:04;;;;;;;14.30;8.65;;;5.40;99.90;;;;;;7603954;19;20021;-73
2022/11/03 02:08:51;;;;;;;15.73;8.57;;;5.40;99.90;;;;;;7612524;19;21177;-73
2022/11/03 02:14:14;;;;;;;18.65;9.57;;;5.40;99.90;;;;;;7597287;19;20087;-73
2022/11/03 02:17:16;;;;;;;15.27;9.05;;;5.20;99.90;;;;;;7605385;19;20034;-73
2022/11/03 02:20:27;;;;;;;17.20;9.73;;;5.20;99.90;;;;;;7597820;19;20538;-73
2022/11/03 02:23:02;;;;;;;14.85;8.98;;;5.20;99.90;;;;;;7590517;19;20014;-73
2022/11/03 02:25:56;;;;;;;15.65;9.00;;;5.20;99.90;;;;;;7605069;19;20022;-73
2022/11/03 02:28:31;;;;;;;15.75;8.80;;;5.20;99.90;;;;;;7608407;19;20489;-73
2022/11/03 02:31:19;;;;;;;19.20;8.45;;;5.20;99.90;;;;;;7609747;19;20014;-73
2022/11/03 02:34:22;;;;;;;19.33;9.90;;;5.30;99.90;;;;;;7609367;19;20025;-73
2022/11/03 02:37:07;;;;;;;19.25;9.48;;;5.20;99.90;;;;;;7607293;19;20018;-73
2022/11/03 02:39:49;;;;;;;15.30;10.05;;;5.10;99.90;;;;;;7609816;19;20137;-73
2022/11/03 02:42:23;;;;;;;20.85;10.18;;;5.10;99.90;;;;;;7613819;19;20037;-73
2022/11/03 02:44:59;;;;;;;20.70;10.32;;;5.10;99.90;;;;;;7600049;19;20018;-73
2022/11/03 02:47:33;;;;;;;17.70;9.40;;;5.00;99.90;;;;;;7605503;19;20014;-73
2022/11/03 02:50:12;;;;;;;21.85;10.07;;;5.00;99.90;;;;;;7617999;19;20847;-73
2022/11/03 02:52:46;;;;;;;21.02;9.82;;;5.00;99.90;;;;;;7603625;19;20047;-73
2022/11/03 02:56:04;;;;;;;15.77;9.00;;;5.00;99.90;;;;;;7611658;19;20786;-73
2022/11/03 02:58:55;;;;;;;16.05;9.25;;;4.90;99.90;;;;;;7615406;19;20022;-74
2022/11/03 03:01:31;;;;;;;17.50;9.63;;;4.90;99.90;;;;;;7598682;19;20049;-73
2022/11/03 03:04:08;;;;;;;21.70;10.48;;;5.10;99.90;;;;;;7601846;19;20022;-73
2022/11/03 03:06:47;;;;;;;19.02;8.32;;;5.00;99.90;;;;;;7606862;19;20530;-73
2022/11/03 03:09:25;;;;;;;16.58;9.70;;;5.00;99.90;;;;;;7617137;19;20015;-73
2022/11/03 03:11:59;;;;;;;18.42;9.52;;;5.00;99.90;;;;;;7608149;19;20014;-73
2022/11/03 03:14:36;;;;;;;16.00;8.57;;;5.00;99.90;;;;;;7609395;19;20018;-73
2022/11/03 03:17:38;;;;;;;19.92;10.25;;;4.90;99.90;;;;;;7600842;19;20070;-73
2022/11/03 03:20:52;;;;;;;16.17;8.55;;;4.90;99.90;;;;;;7609057;19;20029;-73
2022/11/03 03:23:34;;;;;;;17.93;8.93;;;4.90;99.90;;;;;;7600869;19;20018;-73
2022/11/03 03:26:16;;;;;;;20.67;9.10;;;5.10;99.90;;;;;;7610610;19;20022;-73
2022/11/03 03:28:54;;;;;;;17.30;8.73;;;5.10;99.90;;;;;;7612577;19;20517;-73
2022/11/03 03:31:29;;;;;;;21.23;8.82;;;5.10;99.90;;;;;;7609181;19;20022;-72
2022/11/03 03:34:03;;;;;;;20.05;10.07;;;5.10;99.90;;;;;;7617096;19;20140;-73
2022/11/03 03:36:57;;;;;;;18.88;9.65;;;5.10;99.90;;;;;;7604778;19;20086;-73
2022/11/03 03:39:33;;;;;;;16.75;8.80;;;5.10;99.90;;;;;;7616679;19;20014;-73
2022/11/03 03:42:09;;;;;;;19.05;8.85;;;5.10;99.90;;;;;;7606033;19;20015;-72
2022/11/03 03:44:42;;;;;;;18.40;10.38;;;5.20;99.90;;;;;;7608278;19;20014;-73
2022/11/03 03:47:35;;;;;;;24.45;10.10;;;5.20;99.90;;;;;;7570610;19;20022;-74
2022/11/03 03:50:07;;;;;;;21.35;9.55;;;5.10;99.90;;;;;;7595898;19;20014;-73
2022/11/03 03:52:39;;;;;;;15.32;8.90;;;5.10;99.90;;;;;;7589047;19;20018;-74
2022/11/03 03:55:18;;;;;;;19.83;9.40;;;5.10;99.90;;;;;;7588824;19;20052;-73
2022/11/03 03:57:50;;;;;;;23.25;10.70;;;5.10;99.90;;;;;;7579634;19;21051;-73
2022/11/03 04:00:26;;;;;;;26.45;12.45;;;5.00;99.90;;;;;;7581781;19;20019;-73
2022/11/03 04:02:58;;;;;;;21.08;9.93;;;4.90;99.90;;;;;;7581678;19;20022;-73
2022/11/03 04:05:31;;;;;;;20.23;8.85;;;4.80;99.90;;;;;;7605337;19;20018;-73
2022/11/03 04:08:03;;;;;;;18.75;10.30;;;4.90;99.90;;;;;;7608487;19;20025;-73
2022/11/03 04:10:35;;;;;;;17.97;10.30;;;4.90;99.90;;;;;;7604839;19;20020;-74
2022/11/03 04:24:30;;;;;;;62.70;14.43;;;5.30;99.90;;;;;;7587806;19;20082;-73
2022/11/03 04:27:32;;;;;;;220.00;35.78;;;5.30;99.90;;;;;;7587739;19;20628;-73
2022/11/03 04:30:19;;;;;;;79.00;17.40;;;5.10;99.90;;;;;;7598522;19;20473;-73
2022/11/03 04:32:52;;;;;;;63.83;18.40;;;5.20;99.90;;;;;;7615616;19;20033;-74
2022/11/03 04:35:27;;;;;;;147.48;29.55;;;5.20;99.90;;;;;;7602435;19;20026;-73
2022/11/03 04:38:28;;;;;;;57.53;19.40;;;5.20;99.90;;;;;;7603964;19;20037;-73
2022/11/03 04:41:02;;;;;;;54.20;16.63;;;5.20;99.90;;;;;;7612903;19;20019;-73
2022/11/03 04:43:37;;;;;;;63.55;18.58;;;5.10;99.90;;;;;;7612126;19;20006;-73
2022/11/03 04:46:12;;;;;;;76.43;21.42;;;5.20;99.90;;;;;;7594227;19;20022;-73
2022/11/03 04:48:46;;;;;;;82.72;21.95;;;5.30;99.90;;;;;;7595921;19;20147;-74
2022/11/03 04:51:23;;;;;;;109.28;22.98;;;5.30;99.90;;;;;;7594505;19;20014;-73
2022/11/03 04:54:01;;;;;;;103.68;24.30;;;5.30;99.90;;;;;;7604623;19;20501;-73
2022/11/03 04:56:33;;;;;;;98.45;24.80;;;5.40;99.90;;;;;;7607293;19;20906;-73
2022/11/03 04:59:11;;;;;;;93.90;22.52;;;5.30;99.90;;;;;;7605639;19;20442;-73
2022/11/03 05:01:44;;;;;;;96.88;23.20;;;5.40;99.90;;;;;;7601997;19;20496;-74
2022/11/03 05:04:17;;;;;;;99.43;25.02;;;5.40;99.90;;;;;;7593093;19;20082;-73
2022/11/03 05:06:52;;;;;;;41.27;19.67;;;5.40;99.90;;;;;;7591918;19;20545;-73
2022/11/03 05:09:28;;;;;;;49.15;18.98;;;5.40;99.90;;;;;;7594250;19;20110;-74
2022/11/03 05:12:01;;;;;;;104.72;26.55;;;5.50;99.90;;;;;;7591025;19;20029;-74
2022/11/03 05:14:33;;;;;;;57.30;19.47;;;5.50;99.90;;;;;;7606826;19;20116;-74
2022/11/03 05:17:24;;;;;;;99.32;25.02;;;5.60;99.90;;;;;;7597577;19;20018;-73
2022/11/03 05:20:00;;;;;;;79.53;27.70;;;5.60;99.90;;;;;;7608367;19;20010;-74
2022/11/03 05:22:36;;;;;;;70.63;22.10;;;5.60;99.90;;;;;;7609567;19;20075;-74
2022/11/03 05:25:39;;;;;;;38.30;20.10;;;5.60;99.90;;;;;;7606885;19;20018;-73
2022/11/03 05:28:23;;;;;;;55.42;22.80;;;5.60;99.90;;;;;;7596451;19;20018;-73
2022/11/03 05:30:55;;;;;;;52.63;21.00;;;5.60;99.90;;;;;;7594464;19;20021;-73
2022/11/03 05:33:34;;;;;;;43.88;20.80;;;5.70;99.90;;;;;;7613996;19;20993;-73
2022/11/03 05:36:21;;;;;;;57.33;21.20;;;5.70;99.90;;;;;;7592970;19;20029;-73
2022/11/03 05:38:58;;;;;;;61.08;22.92;;;5.80;99.90;;;;;;7613044;19;20454;-74
2022/11/03 05:41:31;;;;;;;58.25;25.42;;;5.70;99.90;;;;;;7604388;19;20626;-73
2022/11/03 05:44:25;;;;;;;88.22;27.60;;;5.60;99.90;;;;;;7615761;19;20070;-73
2022/11/03 05:46:58;;;;;;;87.13;25.80;;;5.50;99.90;;;;;;7614056;19;20019;-73
2022/11/03 05:49:35;;;;;;;152.30;38.60;;;5.60;99.90;;;;;;7602466;19;20010;-74
2022/11/03 05:52:27;;;;;;;55.25;22.95;;;5.50;99.90;;;;;;7613521;19;20071;-73
2022/11/03 05:55:02;;;;;;;169.73;36.35;;;5.60;99.90;;;;;;7613566;19;20018;-73
2022/11/03 05:57:35;;;;;;;107.05;34.00;;;5.60;99.90;;;;;;7611015;19;20052;-74
2022/11/03 06:00:30;;;;;;;63.23;23.47;;;5.60;99.90;;;;;;7613364;19;21218;-74
2022/11/03 06:03:03;;;;;;;76.65;24.20;;;5.60;99.90;;;;;;7593721;19;20314;-73
2022/11/03 06:05:35;;;;;;;70.65;28.10;;;5.70;99.90;;;;;;7594538;19;20696;-73
2022/11/03 06:08:22;;;;;;;92.40;24.33;;;5.70;99.90;;;;;;7596125;19;20994;-74
2022/11/03 06:11:35;;;;;;;111.72;26.38;;;5.80;99.90;;;;;;7614825;19;20138;-73
2022/11/03 06:14:16;;;;;;;69.72;24.85;;;5.80;99.90;;;;;;7611866;19;20778;-74
2022/11/03 06:17:06;;;;;;;42.03;22.58;;;5.80;99.90;;;;;;7614911;19;20011;-73
2022/11/03 06:19:44;;;;;;;75.20;23.55;;;5.70;99.90;;;;;;7577673;19;20010;-74
2022/11/03 06:22:26;;;;;;;81.05;22.27;;;5.70;99.90;;;;;;7601544;19;20019;-74
2022/11/03 06:25:11;;;;;;;97.95;25.83;;;5.80;99.90;;;;;;7597649;19;20424;-73
2022/11/03 06:27:43;;;;;;;50.42;20.45;;;5.80;99.90;;;;;;7610763;19;20026;-73
2022/11/03 06:30:26;;;;;;;92.15;21.48;;;5.80;99.90;;;;;;7606538;19;20011;-74
2022/11/03 06:33:05;;;;;;;42.00;18.65;;;5.80;99.90;;;;;;7590350;19;20017;-74
2022/11/03 06:35:38;;;;;;;102.28;21.95;;;5.90;99.90;;;;;;7602849;19;20110;-73
2022/11/03 06:38:20;;;;;;;33.88;18.27;;;5.90;99.90;;;;;;7615622;19;20524;-73
2022/11/03 06:40:53;;;;;;;38.42;18.27;;;5.90;99.90;;;;;;7615751;19;20052;-73
2022/11/03 06:43:32;;;;;;;78.78;20.80;;;5.80;99.90;;;;;;7601709;19;20034;-73
2022/11/03 06:46:19;;;;;;;50.55;19.25;;;5.80;99.90;;;;;;7590988;19;20048;-73
2022/11/03 06:48:54;;;;;;;89.07;20.70;;;5.90;99.90;;;;;;7612672;19;20018;-73
2022/11/03 06:51:28;;;;;;;75.57;19.15;;;5.90;99.90;;;;;;7620252;19;20026;-73
2022/11/03 06:54:05;;;;;;;31.13;15.93;;;5.90;99.90;;;;;;7605540;19;21167;-73
2022/11/03 06:56:37;;;;;;;29.85;17.95;;;5.90;99.90;;;;;;7594469;19;20006;-73
2022/11/03 06:59:13;;;;;;;29.60;17.65;;;5.90;99.90;;;;;;7607249;19;20022;-73
2022/11/03 07:01:51;;;;;;;40.28;17.35;;;5.90;99.90;;;;;;7588950;19;20010;-74
2022/11/03 07:04:27;;;;;;;50.95;22.27;;;6.00;99.90;;;;;;7593154;19;20015;-74
2022/11/03 07:07:02;;;;;;;34.53;18.58;;;6.00;99.90;;;;;;7591979;19;20017;-73
2022/11/03 07:09:34;;;;;;;29.85;18.17;;;6.00;99.90;;;;;;7611920;19;20042;-74
2022/11/03 07:12:15;;;;;;;37.40;18.98;;;6.10;99.90;;;;;;7606571;19;20105;-74
2022/11/03 07:14:47;;;;;;;27.45;18.40;;;6.10;99.90;;;;;;7598188;19;20754;-73
2022/11/03 07:17:21;;;;;;;35.80;19.70;;;6.10;99.90;;;;;;7599947;19;20010;-74
2022/11/03 07:19:53;;;;;;;32.55;19.20;;;6.10;99.90;;;;;;7578949;19;20090;-73
2022/11/03 07:22:26;;;;;;;33.92;20.25;;;6.20;99.90;;;;;;7612440;19;20017;-74
2022/11/03 07:25:05;;;;;;;23.42;16.52;;;6.10;99.90;;;;;;7592882;19;20388;-73
2022/11/03 07:27:39;;;;;;;24.38;15.73;;;6.20;99.90;;;;;;7610341;19;20023;-73
2022/11/03 07:30:18;;;;;;;21.80;15.18;;;6.20;99.90;;;;;;7597735;19;20006;-73
2022/11/03 07:32:53;;;;;;;23.35;15.52;;;6.20;99.90;;;;;;7604964;19;20018;-73
2022/11/03 07:35:35;;;;;;;25.25;15.70;;;6.20;99.90;;;;;;7592259;19;20036;-74
2022/11/03 07:38:28;;;;;;;28.35;16.98;;;6.30;99.90;;;;;;7597071;19;20018;-74
2022/11/03 07:41:00;;;;;;;27.80;15.77;;;6.30;99.90;;;;;;7592433;19;20021;-71
2022/11/03 07:43:34;;;;;;;23.15;15.80;;;6.40;99.90;;;;;;7612445;19;20101;-71
2022/11/03 07:46:15;;;;;;;25.77;15.98;;;6.40;99.90;;;;;;7578476;19;21661;-73
2022/11/03 07:48:54;;;;;;;23.83;17.20;;;6.40;99.90;;;;;;7601809;19;20494;-74
2022/11/03 07:51:40;;;;;;;25.70;15.43;;;6.40;99.90;;;;;;7601074;19;20864;-73
2022/11/03 07:54:34;;;;;;;25.77;17.55;;;6.60;99.90;;;;;;7608157;19;20014;-73
2022/11/03 07:57:20;;;;;;;28.02;17.33;;;6.60;99.90;;;;;;7575073;19;20010;-74
2022/11/03 08:00:03;;;;;;;23.67;16.52;;;6.60;99.90;;;;;;7585249;19;20082;-74
2022/11/03 08:02:53;;;;;;;24.80;16.48;;;6.70;99.90;;;;;;7597369;19;20010;-74
2022/11/03 08:05:26;;;;;;;27.42;16.40;;;6.80;99.90;;;;;;7585208;19;20026;-73
2022/11/03 08:07:58;;;;;;;25.27;17.15;;;6.90;99.90;;;;;;7580188;19;20021;-73
2022/11/03 08:10:30;;;;;;;23.75;16.08;;;7.00;99.90;;;;;;7616024;19;20010;-74
2022/11/03 08:13:02;;;;;;;23.95;16.10;;;7.00;99.90;;;;;;7588449;19;20018;-74
2022/11/03 08:15:35;;;;;;;24.15;15.48;;;7.10;99.90;;;;;;7597522;19;20057;-73
2022/11/03 08:18:07;;;;;;;22.05;15.05;;;7.10;99.90;;;;;;7593916;19;20038;-73
2022/11/03 08:20:40;;;;;;;26.30;17.10;;;7.20;99.90;;;;;;7586449;19;20014;-74
2022/11/03 08:23:12;;;;;;;22.95;15.85;;;7.30;99.90;;;;;;7582706;19;21432;-74
2022/11/03 08:25:56;;;;;;;22.48;15.40;;;7.30;99.90;;;;;;7590464;19;20390;-74
2022/11/03 08:28:29;;;;;;;20.15;14.43;;;7.40;99.90;;;;;;7589455;19;20010;-73
2022/11/03 08:31:03;;;;;;;22.70;13.90;;;7.40;99.90;;;;;;7564954;19;20006;-74
2022/11/03 08:33:43;;;;;;;21.13;14.52;;;7.40;99.90;;;;;;7563799;19;20367;-73
2022/11/03 08:36:15;;;;;;;21.17;14.93;;;7.40;99.90;;;;;;7598619;19;20407;-74
2022/11/03 08:38:48;;;;;;;20.20;14.75;;;7.50;99.90;;;;;;7593990;19;20048;-72
2022/11/03 08:41:20;;;;;;;19.13;13.02;;;7.60;99.90;;;;;;7605420;19;20018;-71
2022/11/03 08:43:52;;;;;;;19.17;14.07;;;7.70;99.90;;;;;;7589514;19;20026;-72
2022/11/03 08:46:25;;;;;;;21.30;14.65;;;7.70;99.90;;;;;;7591712;19;20011;-74
2022/11/03 08:48:57;;;;;;;19.63;14.00;;;7.80;99.90;;;;;;7584141;19;20102;-72
2022/11/03 08:51:29;;;;;;;20.58;13.25;;;7.90;99.90;;;;;;7591401;19;20082;-72
2022/11/03 08:54:01;;;;;;;17.23;12.25;;;8.00;99.90;;;;;;7607602;19;20010;-73
2022/11/03 08:56:33;;;;;;;16.38;11.55;;;8.20;99.90;;;;;;7601695;19;20462;-72
2022/11/03 08:59:06;;;;;;;19.27;11.23;;;8.30;99.90;;;;;;7576287;19;20104;-72
2022/11/03 09:01:38;;;;;;;18.13;10.95;;;8.50;99.90;;;;;;7586588;19;20014;-72
2022/11/03 09:04:10;;;;;;;15.45;10.98;;;8.60;99.90;;;;;;7579588;19;20014;-72
2022/11/03 09:06:43;;;;;;;14.50;11.15;;;8.70;99.90;;;;;;7595827;19;20022;-72
2022/11/03 09:09:15;;;;;;;16.98;10.57;;;8.80;99.90;;;;;;7600715;19;20023;-72
2022/11/03 09:12:08;;;;;;;15.38;9.63;;;8.90;99.90;;;;;;7599638;19;20919;-72
2022/11/03 09:14:40;;;;;;;14.45;9.38;;;8.90;99.90;;;;;;7592842;19;20048;-72
2022/11/03 09:17:12;;;;;;;13.77;9.55;;;9.10;99.90;;;;;;7605590;19;20096;-72
2022/11/03 09:19:44;;;;;;;13.32;8.60;;;9.30;99.90;;;;;;7619133;19;20022;-72
2022/11/03 09:22:16;;;;;;;17.60;9.18;;;9.40;99.90;;;;;;7615539;19;20054;-72
2022/11/03 09:24:49;;;;;;;12.02;8.93;;;9.50;99.90;;;;;;7598972;19;20007;-73
2022/11/03 09:27:21;;;;;;;14.65;11.13;;;9.60;99.90;;;;;;7607079;19;20048;-72
2022/11/03 09:29:53;;;;;;;17.65;11.77;;;9.60;99.90;;;;;;7614548;19;20615;-72
2022/11/03 09:32:45;;;;;;;22.77;13.32;;;9.60;99.90;;;;;;7613399;19;20130;-72
2022/11/03 09:35:17;;;;;;;17.17;12.88;;;9.60;99.90;;;;;;7612268;19;20018;-72
2022/11/03 09:37:49;;;;;;;19.23;13.63;;;9.60;99.90;;;;;;7609528;19;20038;-71
2022/11/03 09:40:21;;;;;;;22.25;13.50;;;9.60;99.90;;;;;;7614291;19;20014;-72
2022/11/03 09:42:55;;;;;;;20.58;13.60;;;9.70;99.90;;;;;;7613061;19;20018;-72
2022/11/03 09:45:27;;;;;;;20.48;13.55;;;9.70;99.90;;;;;;7613360;19;20122;-71
2022/11/03 09:48:00;;;;;;;21.75;13.77;;;9.80;99.90;;;;;;7600864;19;20048;-71
2022/11/03 09:50:32;;;;;;;17.65;13.40;;;9.90;99.90;;;;;;7616439;19;20039;-72
2022/11/03 09:53:05;;;;;;;24.20;12.13;;;10.00;99.90;;;;;;7615234;19;20018;-71
2022/11/03 09:55:38;;;;;;;20.25;12.25;;;10.10;99.90;;;;;;7610745;19;20077;-72
2022/11/03 09:58:16;;;;;;;18.85;12.02;;;10.20;99.90;;;;;;7611210;19;20017;-72
2022/11/03 10:00:48;;;;;;;26.08;13.07;;;10.30;99.90;;;;;;7619075;19;20419;-72
2022/11/03 10:03:20;;;;;;;18.58;11.82;;;10.40;99.90;;;;;;7616494;19;20014;-72
2022/11/03 10:05:52;;;;;;;18.98;12.32;;;10.40;99.90;;;;;;7621449;19;20048;-71
2022/11/03 10:08:31;;;;;;;17.13;11.95;;;10.40;99.90;;;;;;7625547;19;20010;-72
2022/11/03 10:11:05;;;;;;;18.23;12.32;;;10.30;99.90;;;;;;7611909;19;20054;-72
2022/11/03 10:13:42;;;;;;;18.25;12.40;;;10.40;99.90;;;;;;7621891;19;20018;-72
2022/11/03 10:16:17;;;;;;;14.38;10.95;;;10.50;99.90;;;;;;7608790;19;20017;-72
2022/11/03 10:18:50;;;;;;;18.67;12.05;;;10.60;99.90;;;;;;7622128;19;20006;-71
2022/11/03 10:21:28;;;;;;;18.38;11.18;;;10.80;99.90;;;;;;7617538;19;20557;-72
2022/11/03 10:24:00;;;;;;;19.67;11.20;;;10.80;99.90;;;;;;7614395;19;21088;-72
2022/11/03 10:26:42;;;;;;;18.95;11.50;;;10.80;99.90;;;;;;7607674;19;20625;-72
2022/11/03 10:29:24;;;;;;;19.33;10.90;;;11.00;99.90;;;;;;7617120;19;20029;-72
2022/11/03 10:31:57;;;;;;;21.48;9.73;;;11.10;99.90;;;;;;7611081;19;20513;-72
2022/11/03 10:34:34;;;;;;;18.30;10.43;;;11.20;99.90;;;;;;7603750;19;20011;-72
2022/11/03 10:37:23;;;;;;;13.75;10.95;;;11.20;99.90;;;;;;7605622;19;20017;-72
2022/11/03 10:39:57;;;;;;;13.65;9.75;;;11.30;99.90;;;;;;7625300;19;20014;-72
2022/11/03 10:42:30;;;;;;;14.18;9.07;;;11.40;99.90;;;;;;7618237;19;20070;-72
2022/11/03 10:45:16;;;;;;;14.60;9.60;;;11.60;99.90;;;;;;7609528;19;20018;-72
2022/11/03 10:48:05;;;;;;;14.73;9.57;;;11.70;99.90;;;;;;7616570;19;20014;-73
2022/11/03 10:50:39;;;;;;;13.98;8.98;;;11.80;99.90;;;;;;7615501;19;20094;-71
2022/11/03 10:53:15;;;;;;;;;;;12.20;99.90;;;;;;7613376;19;20029;-71
2022/11/03 10:55:47;;;;;;;15.73;8.73;;;12.20;99.90;;;;;;7613691;19;19938;-71
2022/11/03 10:58:19;;;;;;;12.38;8.80;;;12.30;99.90;;;;;;7619855;19;20011;-71
2022/11/03 11:00:51;;;;;;;15.95;8.65;;;12.40;99.90;;;;;;7621948;19;20011;-71
2022/11/03 11:03:23;;;;;;;11.00;7.65;;;12.40;99.90;;;;;;7615635;19;20024;-71
2022/11/03 11:05:55;;;;;;;12.27;7.15;;;12.50;99.90;;;;;;7622122;19;20014;-71
2022/11/03 11:08:28;;;;;;;8.38;6.45;;;12.70;99.90;;;;;;7623875;19;20073;-71
2022/11/03 11:11:05;;;;;;;11.90;7.53;;;13.00;99.90;;;;;;7612057;19;20657;-71
2022/11/03 11:13:37;;;;;;;12.80;7.43;;;13.60;99.90;;;;;;7610599;19;20026;-71
2022/11/03 11:16:49;;;;;;;11.93;7.38;;;15.10;99.90;;;;;;7609198;19;20015;-70
2022/11/03 11:19:23;;;;;;;10.18;7.60;;;19.00;94.70;;;;;;7618467;19;20018;-71
2022/11/03 11:21:55;;;;;;;10.55;7.32;;;22.00;76.40;;;;;;7621145;19;20409;-71
2022/11/03 11:24:43;;;;;;;14.48;7.28;;;22.80;70.20;;;;;;7622392;19;20006;-70
2022/11/03 11:27:30;;;;;;;8.43;6.13;;;23.60;66.80;;;;;;7617209;19;20022;-72
2022/11/03 11:30:06;;;;;;;9.68;5.45;;;22.90;64.50;;;;;;7600130;19;20011;-72
2022/11/03 11:32:38;;;;;;;6.30;4.97;;;22.70;67.50;;;;;;7612575;19;20046;-72
2022/11/03 11:35:14;;;;;;;6.60;4.93;;;22.50;66.20;;;;;;7599933;19;20037;-72
2022/11/03 11:37:46;;;;;;;9.90;5.18;;;22.00;67.50;;;;;;7616696;19;20018;-72
2022/11/03 11:40:24;;;;;;;18.48;5.40;;;21.30;69.00;;;;;;7617072;19;20064;-72
2022/11/03 11:43:05;;;;;;;9.30;6.00;;;20.60;71.00;;;;;;7622884;19;20022;-72
2022/11/03 11:46:16;;;;;;;12.13;6.60;;;20.30;72.20;;;;;;7607338;19;20014;-72
2022/11/03 11:49:03;;;;;;;9.55;6.07;;;19.50;74.30;;;;;;7617766;19;20085;-72
2022/11/03 11:51:39;;;;;;;12.20;7.00;;;19.20;76.40;;;;;;7614874;19;20014;-72
2022/11/03 11:54:18;;;;;;;9.85;6.63;;;18.60;76.50;;;;;;7608728;19;20798;-72
2022/11/03 11:56:50;;;;;;;11.43;7.38;;;17.80;78.70;;;;;;7607932;19;20022;-72
2022/11/03 11:59:23;;;;;;;12.82;9.10;;;17.20;83.20;;;;;;7620881;19;20007;-72
2022/11/03 12:02:17;;;;;;;12.50;8.57;;;16.60;85.50;;;;;;7617336;19;20109;-71
2022/11/03 12:05:01;;;;;;;17.05;9.40;;;16.20;88.10;;;;;;7612528;19;20022;-72
2022/11/03 12:07:35;;;;;;;20.05;9.00;;;15.90;90.00;;;;;;7620174;19;20029;-72
2022/11/03 12:10:08;;;;;;;11.65;8.50;;;15.70;90.90;;;;;;7611277;19;20014;-72
2022/11/03 12:12:40;;;;;;;15.05;8.93;;;15.60;91.70;;;;;;7614354;19;20025;-72
2022/11/03 12:15:47;;;;;;;13.50;9.15;;;15.60;92.30;;;;;;7609446;19;20014;-71
2022/11/03 12:18:40;;;;;;;15.05;9.60;;;15.70;92.90;;;;;;7612851;19;20026;-72
2022/11/03 12:21:44;;;;;;;15.48;10.32;;;16.10;92.80;;;;;;7608583;19;20011;-72
2022/11/03 12:24:32;;;;;;;14.10;9.15;;;16.40;91.60;;;;;;7610413;19;20770;-72
2022/11/03 12:27:24;;;;;;;15.35;9.32;;;16.90;91.40;;;;;;7585957;19;20057;-72
2022/11/03 12:29:59;;;;;;;14.05;9.20;;;16.50;91.40;;;;;;7609471;19;20007;-72
2022/11/03 12:32:32;;;;;;;12.38;8.38;;;16.20;92.30;;;;;;7604594;19;20019;-72
2022/11/03 12:35:08;;;;;;;11.52;8.48;;;16.10;93.10;;;;;;7611662;19;20018;-72
2022/11/03 12:37:41;;;;;;;10.05;7.85;;;16.10;92.70;;;;;;7617688;19;20014;-72
2022/11/03 12:40:13;;;;;;;12.95;8.20;;;16.30;92.50;;;;;;7607746;19;20024;-72
2022/11/03 12:42:45;;;;;;;12.38;8.32;;;16.30;92.10;;;;;;7608197;19;20018;-72
2022/11/03 12:45:17;;;;;;;12.93;7.95;;;16.50;91.80;;;;;;7610020;19;20524;-72
2022/11/03 12:47:50;;;;;;;12.93;8.38;;;16.60;91.60;;;;;;7614405;19;20018;-72
2022/11/03 12:50:22;;;;;;;14.32;9.43;;;16.30;92.00;;;;;;7610844;19;20579;-72
2022/11/03 12:52:54;;;;;;;16.30;9.45;;;15.80;93.80;;;;;;7616515;19;20038;-72
2022/11/03 12:55:26;;;;;;;15.02;9.00;;;15.40;94.60;;;;;;7600429;19;20019;-72
2022/11/03 12:58:18;;;;;;;15.88;9.32;;;15.30;95.80;;;;;;7610486;19;20014;-72
2022/11/03 13:00:50;;;;;;;18.20;9.70;;;15.30;97.80;;;;;;7620453;19;20022;-72
2022/11/03 13:03:28;;;;;;;15.38;9.52;;;15.20;98.90;;;;;;7605625;19;20014;-72
2022/11/03 13:06:03;;;;;;;19.40;10.33;;;15.10;99.50;;;;;;7617422;19;20017;-72
2022/11/03 13:08:36;;;;;;;14.60;10.30;;;15.00;99.90;;;;;;7603550;19;20540;-72
2022/11/03 13:13:59;;;;;;;18.63;10.30;;;14.80;99.90;;;;;;7573006;19;20344;-72
2022/11/03 13:16:31;;;;;;;15.95;9.95;;;14.80;99.90;;;;;;7589473;19;20031;-72
2022/11/03 13:19:03;;;;;;;15.93;10.65;;;14.80;99.90;;;;;;7600581;19;20007;-72
2022/11/03 13:21:36;;;;;;;16.85;10.52;;;14.70;99.90;;;;;;7598621;19;20018;-72
2022/11/03 13:24:08;;;;;;;16.93;11.50;;;14.70;99.90;;;;;;7583114;19;20621;-71
2022/11/03 13:26:40;;;;;;;18.63;11.82;;;14.60;99.90;;;;;;7594812;19;20011;-72
2022/11/03 13:29:12;;;;;;;17.75;10.77;;;14.50;99.90;;;;;;7601401;19;20018;-72
2022/11/03 13:31:45;;;;;;;22.50;12.30;;;14.40;99.90;;;;;;7590134;19;20078;-72
2022/11/03 13:34:17;;;;;;;18.02;11.27;;;14.50;99.90;;;;;;7585686;19;20014;-72
2022/11/03 13:36:49;;;;;;;15.18;12.05;;;14.50;99.90;;;;;;7595373;19;20439;-72
2022/11/03 13:39:22;;;;;;;20.33;13.13;;;14.60;99.90;;;;;;7603378;19;20098;-72
2022/11/03 13:41:54;;;;;;;19.45;12.70;;;14.60;99.90;;;;;;7609185;19;20010;-72
2022/11/03 13:44:26;;;;;;;27.38;14.57;;;14.60;99.90;;;;;;7600216;19;20022;-72
2022/11/03 13:46:58;;;;;;;22.52;13.23;;;14.50;99.90;;;;;;7597270;19;20019;-72
2022/11/03 13:49:31;;;;;;;21.38;13.57;;;14.40;99.90;;;;;;7598451;19;20011;-71
2022/11/03 13:52:24;;;;;;;24.75;14.55;;;14.30;99.90;;;;;;7580445;19;20014;-72